sensor_id;sensor_type;location;lat;lon;timestamp;P1;durP1;ratioP1;P2;durP2;ratioP2
12141;SDS011;6134;59.284;18.022;2022-12-31T00:00:52;11.18;;;3.20;;
12141;SDS011;6134;59.284;18.022;2022-12-31T00:03:20;11.50;;;3.17;;
12141;SDS011;6134;59.284;18.022;2022-12-31T00:05:49;10.50;;;3.63;;
12141;SDS011;6134;59.284;18.022;2022-12-31T00:08:19;11.88;;;3.53;;
12141;SDS011;6134;59.284;18.022;2022-12-31T00:10:48;15.88;;;4.00;;
12141;SDS011;6134;59.284;18.022;2022-12-31T00:13:17;12.73;;;3.42;;
12141;SDS011;6134;59.284;18.022;2022-12-31T00:15:45;11.18;;;3.80;;
12141;SDS011;6134;59.284;18.022;2022-12-31T00:18:14;9.60;;;3.55;;
12141;SDS011;6134;59.284;18.022;2022-12-31T00:20:43;13.85;;;3.60;;
12141;SDS011;6134;59.284;18.022;2022-12-31T00:23:11;13.85;;;3.88;;
12141;SDS011;6134;59.284;18.022;2022-12-31T00:25:41;15.85;;;3.33;;
12141;SDS011;6134;59.284;18.022;2022-12-31T00:28:10;18.85;;;4.10;;
12141;SDS011;6134;59.284;18.022;2022-12-31T00:30:38;14.25;;;3.75;;
12141;SDS011;6134;59.284;18.022;2022-12-31T00:33:07;10.13;;;3.53;;
12141;SDS011;6134;59.284;18.022;2022-12-31T00:35:36;12.15;;;4.10;;
12141;SDS011;6134;59.284;18.022;2022-12-31T00:38:05;12.27;;;3.75;;
12141;SDS011;6134;59.284;18.022;2022-12-31T00:40:33;8.45;;;3.90;;
12141;SDS011;6134;59.284;18.022;2022-12-31T00:43:03;11.15;;;3.85;;
12141;SDS011;6134;59.284;18.022;2022-12-31T00:45:32;11.95;;;3.33;;
12141;SDS011;6134;59.284;18.022;2022-12-31T00:48:00;10.70;;;3.90;;
12141;SDS011;6134;59.284;18.022;2022-12-31T00:50:29;9.35;;;3.58;;
12141;SDS011;6134;59.284;18.022;2022-12-31T00:52:58;12.23;;;3.83;;
12141;SDS011;6134;59.284;18.022;2022-12-31T00:55:26;12.70;;;3.47;;
12141;SDS011;6134;59.284;18.022;2022-12-31T00:57:55;12.18;;;3.78;;
12141;SDS011;6134;59.284;18.022;2022-12-31T01:00:25;11.48;;;3.67;;
12141;SDS011;6134;59.284;18.022;2022-12-31T01:02:54;11.32;;;3.58;;
12141;SDS011;6134;59.284;18.022;2022-12-31T01:05:23;13.00;;;4.15;;
12141;SDS011;6134;59.284;18.022;2022-12-31T01:07:51;12.18;;;4.70;;
12141;SDS011;6134;59.284;18.022;2022-12-31T01:10:20;10.02;;;3.75;;
12141;SDS011;6134;59.284;18.022;2022-12-31T01:13:03;13.52;;;3.90;;
12141;SDS011;6134;59.284;18.022;2022-12-31T01:15:33;9.52;;;4.32;;
12141;SDS011;6134;59.284;18.022;2022-12-31T01:18:02;10.93;;;3.85;;
12141;SDS011;6134;59.284;18.022;2022-12-31T01:20:34;12.82;;;3.65;;
12141;SDS011;6134;59.284;18.022;2022-12-31T01:23:03;14.45;;;4.20;;
12141;SDS011;6134;59.284;18.022;2022-12-31T01:25:33;11.23;;;4.45;;
12141;SDS011;6134;59.284;18.022;2022-12-31T01:28:02;9.18;;;3.65;;
12141;SDS011;6134;59.284;18.022;2022-12-31T01:30:30;14.27;;;4.45;;
12141;SDS011;6134;59.284;18.022;2022-12-31T01:33:01;13.40;;;4.40;;
12141;SDS011;6134;59.284;18.022;2022-12-31T01:35:29;12.20;;;3.85;;
12141;SDS011;6134;59.284;18.022;2022-12-31T01:38:01;15.57;;;4.63;;
12141;SDS011;6134;59.284;18.022;2022-12-31T01:40:29;10.38;;;3.72;;
12141;SDS011;6134;59.284;18.022;2022-12-31T01:42:58;10.75;;;4.10;;
12141;SDS011;6134;59.284;18.022;2022-12-31T01:45:27;14.10;;;3.80;;
12141;SDS011;6134;59.284;18.022;2022-12-31T01:47:55;10.65;;;3.53;;
12141;SDS011;6134;59.284;18.022;2022-12-31T01:50:27;12.55;;;3.25;;
12141;SDS011;6134;59.284;18.022;2022-12-31T01:52:58;8.55;;;3.80;;
12141;SDS011;6134;59.284;18.022;2022-12-31T01:55:29;9.07;;;3.15;;
12141;SDS011;6134;59.284;18.022;2022-12-31T01:58:00;10.75;;;3.38;;
12141;SDS011;6134;59.284;18.022;2022-12-31T02:00:32;12.07;;;3.58;;
12141;SDS011;6134;59.284;18.022;2022-12-31T02:03:01;9.88;;;3.20;;
12141;SDS011;6134;59.284;18.022;2022-12-31T02:05:34;8.93;;;3.08;;
12141;SDS011;6134;59.284;18.022;2022-12-31T02:08:05;11.27;;;3.70;;
12141;SDS011;6134;59.284;18.022;2022-12-31T02:10:34;9.77;;;3.30;;
12141;SDS011;6134;59.284;18.022;2022-12-31T02:13:03;10.40;;;3.67;;
12141;SDS011;6134;59.284;18.022;2022-12-31T02:15:36;12.55;;;3.80;;
12141;SDS011;6134;59.284;18.022;2022-12-31T02:18:08;8.93;;;3.72;;
12141;SDS011;6134;59.284;18.022;2022-12-31T02:20:44;8.48;;;2.97;;
12141;SDS011;6134;59.284;18.022;2022-12-31T02:23:30;6.60;;;3.25;;
12141;SDS011;6134;59.284;18.022;2022-12-31T02:28:58;12.70;;;3.10;;
12141;SDS011;6134;59.284;18.022;2022-12-31T02:31:33;10.35;;;3.63;;
12141;SDS011;6134;59.284;18.022;2022-12-31T02:34:05;9.88;;;2.97;;
12141;SDS011;6134;59.284;18.022;2022-12-31T02:36:35;13.18;;;3.55;;
12141;SDS011;6134;59.284;18.022;2022-12-31T02:39:05;7.85;;;3.08;;
12141;SDS011;6134;59.284;18.022;2022-12-31T02:41:35;10.80;;;3.08;;
12141;SDS011;6134;59.284;18.022;2022-12-31T02:44:20;9.32;;;3.13;;
12141;SDS011;6134;59.284;18.022;2022-12-31T02:46:52;11.38;;;3.53;;
12141;SDS011;6134;59.284;18.022;2022-12-31T02:49:22;7.00;;;3.00;;
12141;SDS011;6134;59.284;18.022;2022-12-31T02:51:56;13.23;;;3.17;;
12141;SDS011;6134;59.284;18.022;2022-12-31T02:54:29;12.38;;;3.17;;
12141;SDS011;6134;59.284;18.022;2022-12-31T02:57:03;7.47;;;2.72;;
12141;SDS011;6134;59.284;18.022;2022-12-31T02:59:34;9.32;;;2.80;;
12141;SDS011;6134;59.284;18.022;2022-12-31T03:02:25;7.43;;;3.05;;
12141;SDS011;6134;59.284;18.022;2022-12-31T03:04:55;6.22;;;2.67;;
12141;SDS011;6134;59.284;18.022;2022-12-31T03:07:25;5.13;;;2.28;;
12141;SDS011;6134;59.284;18.022;2022-12-31T03:09:54;6.38;;;2.83;;
12141;SDS011;6134;59.284;18.022;2022-12-31T03:12:23;7.05;;;3.25;;
12141;SDS011;6134;59.284;18.022;2022-12-31T03:15:11;7.03;;;2.80;;
12141;SDS011;6134;59.284;18.022;2022-12-31T03:17:51;7.13;;;2.70;;
12141;SDS011;6134;59.284;18.022;2022-12-31T03:20:22;6.07;;;2.63;;
12141;SDS011;6134;59.284;18.022;2022-12-31T03:23:09;7.65;;;2.75;;
12141;SDS011;6134;59.284;18.022;2022-12-31T03:25:38;5.10;;;2.40;;
12141;SDS011;6134;59.284;18.022;2022-12-31T03:28:06;4.85;;;2.65;;
12141;SDS011;6134;59.284;18.022;2022-12-31T03:30:35;4.55;;;2.33;;
12141;SDS011;6134;59.284;18.022;2022-12-31T03:33:06;10.35;;;2.90;;
12141;SDS011;6134;59.284;18.022;2022-12-31T03:35:36;9.00;;;2.60;;
12141;SDS011;6134;59.284;18.022;2022-12-31T03:38:04;6.78;;;2.55;;
12141;SDS011;6134;59.284;18.022;2022-12-31T03:40:36;7.40;;;2.65;;
12141;SDS011;6134;59.284;18.022;2022-12-31T03:43:05;6.20;;;2.30;;
12141;SDS011;6134;59.284;18.022;2022-12-31T03:45:34;7.70;;;3.08;;
12141;SDS011;6134;59.284;18.022;2022-12-31T03:48:03;5.88;;;2.10;;
12141;SDS011;6134;59.284;18.022;2022-12-31T03:50:33;6.50;;;3.47;;
12141;SDS011;6134;59.284;18.022;2022-12-31T03:53:02;5.90;;;2.50;;
12141;SDS011;6134;59.284;18.022;2022-12-31T03:55:31;5.28;;;3.00;;
12141;SDS011;6134;59.284;18.022;2022-12-31T03:58:00;7.60;;;2.70;;
12141;SDS011;6134;59.284;18.022;2022-12-31T04:00:28;4.80;;;2.35;;
12141;SDS011;6134;59.284;18.022;2022-12-31T04:02:57;8.13;;;2.30;;
12141;SDS011;6134;59.284;18.022;2022-12-31T04:05:26;8.88;;;2.63;;
12141;SDS011;6134;59.284;18.022;2022-12-31T04:07:56;6.53;;;2.85;;
12141;SDS011;6134;59.284;18.022;2022-12-31T04:10:24;5.63;;;2.75;;
12141;SDS011;6134;59.284;18.022;2022-12-31T04:12:53;4.85;;;2.20;;
12141;SDS011;6134;59.284;18.022;2022-12-31T04:15:22;5.68;;;2.53;;
12141;SDS011;6134;59.284;18.022;2022-12-31T04:17:50;7.47;;;2.60;;
12141;SDS011;6134;59.284;18.022;2022-12-31T04:20:19;4.47;;;2.40;;
12141;SDS011;6134;59.284;18.022;2022-12-31T04:22:48;6.00;;;2.65;;
12141;SDS011;6134;59.284;18.022;2022-12-31T04:25:18;6.57;;;2.35;;
12141;SDS011;6134;59.284;18.022;2022-12-31T04:27:46;4.95;;;2.40;;
12141;SDS011;6134;59.284;18.022;2022-12-31T04:30:15;8.50;;;2.65;;
12141;SDS011;6134;59.284;18.022;2022-12-31T04:32:44;5.28;;;2.75;;
12141;SDS011;6134;59.284;18.022;2022-12-31T04:35:12;7.00;;;2.42;;
12141;SDS011;6134;59.284;18.022;2022-12-31T04:37:41;8.98;;;2.55;;
12141;SDS011;6134;59.284;18.022;2022-12-31T04:40:10;4.60;;;2.25;;
12141;SDS011;6134;59.284;18.022;2022-12-31T04:42:40;9.77;;;2.95;;
12141;SDS011;6134;59.284;18.022;2022-12-31T04:45:09;5.93;;;2.80;;
12141;SDS011;6134;59.284;18.022;2022-12-31T04:47:37;6.07;;;2.85;;
12141;SDS011;6134;59.284;18.022;2022-12-31T04:50:06;9.23;;;2.78;;
12141;SDS011;6134;59.284;18.022;2022-12-31T04:52:35;7.18;;;3.22;;
12141;SDS011;6134;59.284;18.022;2022-12-31T04:55:08;5.22;;;2.33;;
12141;SDS011;6134;59.284;18.022;2022-12-31T04:57:37;6.88;;;3.05;;
12141;SDS011;6134;59.284;18.022;2022-12-31T05:00:08;7.95;;;2.28;;
12141;SDS011;6134;59.284;18.022;2022-12-31T05:02:36;4.28;;;2.55;;
12141;SDS011;6134;59.284;18.022;2022-12-31T05:05:06;7.88;;;2.33;;
12141;SDS011;6134;59.284;18.022;2022-12-31T05:07:35;8.07;;;2.80;;
12141;SDS011;6134;59.284;18.022;2022-12-31T05:10:04;6.53;;;2.40;;
12141;SDS011;6134;59.284;18.022;2022-12-31T05:12:32;4.72;;;2.85;;
12141;SDS011;6134;59.284;18.022;2022-12-31T05:15:01;5.30;;;2.25;;
12141;SDS011;6134;59.284;18.022;2022-12-31T05:17:31;4.97;;;2.10;;
12141;SDS011;6134;59.284;18.022;2022-12-31T05:20:00;6.70;;;2.60;;
12141;SDS011;6134;59.284;18.022;2022-12-31T05:22:28;3.05;;;2.05;;
12141;SDS011;6134;59.284;18.022;2022-12-31T05:24:57;3.63;;;2.00;;
12141;SDS011;6134;59.284;18.022;2022-12-31T05:27:27;4.50;;;2.30;;
12141;SDS011;6134;59.284;18.022;2022-12-31T05:29:57;5.35;;;2.00;;
12141;SDS011;6134;59.284;18.022;2022-12-31T05:32:25;3.78;;;2.22;;
12141;SDS011;6134;59.284;18.022;2022-12-31T05:34:56;5.00;;;2.22;;
12141;SDS011;6134;59.284;18.022;2022-12-31T05:37:26;6.53;;;2.65;;
12141;SDS011;6134;59.284;18.022;2022-12-31T05:39:55;3.88;;;1.95;;
12141;SDS011;6134;59.284;18.022;2022-12-31T05:42:24;4.68;;;1.98;;
12141;SDS011;6134;59.284;18.022;2022-12-31T05:44:53;3.40;;;1.88;;
12141;SDS011;6134;59.284;18.022;2022-12-31T05:47:22;4.95;;;2.22;;
12141;SDS011;6134;59.284;18.022;2022-12-31T05:49:50;3.17;;;1.73;;
12141;SDS011;6134;59.284;18.022;2022-12-31T05:52:20;9.07;;;2.63;;
12141;SDS011;6134;59.284;18.022;2022-12-31T05:54:50;4.60;;;2.00;;
12141;SDS011;6134;59.284;18.022;2022-12-31T05:57:19;6.93;;;2.13;;
12141;SDS011;6134;59.284;18.022;2022-12-31T05:59:47;4.82;;;1.98;;
12141;SDS011;6134;59.284;18.022;2022-12-31T06:02:18;6.30;;;2.10;;
12141;SDS011;6134;59.284;18.022;2022-12-31T06:04:47;3.50;;;1.80;;
12141;SDS011;6134;59.284;18.022;2022-12-31T06:07:16;3.05;;;1.70;;
12141;SDS011;6134;59.284;18.022;2022-12-31T06:09:46;2.50;;;1.70;;
12141;SDS011;6134;59.284;18.022;2022-12-31T06:12:14;5.25;;;2.20;;
12141;SDS011;6134;59.284;18.022;2022-12-31T06:14:43;2.90;;;1.90;;
12141;SDS011;6134;59.284;18.022;2022-12-31T06:17:12;4.35;;;1.55;;
12141;SDS011;6134;59.284;18.022;2022-12-31T06:19:40;3.92;;;1.88;;
12141;SDS011;6134;59.284;18.022;2022-12-31T06:22:09;4.10;;;1.70;;
12141;SDS011;6134;59.284;18.022;2022-12-31T06:24:38;4.97;;;1.80;;
12141;SDS011;6134;59.284;18.022;2022-12-31T06:27:09;6.35;;;1.95;;
12141;SDS011;6134;59.284;18.022;2022-12-31T06:29:37;6.60;;;2.00;;
12141;SDS011;6134;59.284;18.022;2022-12-31T06:32:06;4.80;;;1.88;;
12141;SDS011;6134;59.284;18.022;2022-12-31T06:34:35;7.07;;;1.92;;
12141;SDS011;6134;59.284;18.022;2022-12-31T06:37:03;7.60;;;1.67;;
12141;SDS011;6134;59.284;18.022;2022-12-31T06:39:32;4.00;;;1.63;;
12141;SDS011;6134;59.284;18.022;2022-12-31T06:42:01;6.63;;;1.75;;
12141;SDS011;6134;59.284;18.022;2022-12-31T06:44:31;4.47;;;1.77;;
12141;SDS011;6134;59.284;18.022;2022-12-31T06:46:59;3.83;;;1.77;;
12141;SDS011;6134;59.284;18.022;2022-12-31T06:49:28;5.15;;;1.75;;
12141;SDS011;6134;59.284;18.022;2022-12-31T06:51:57;3.22;;;1.50;;
12141;SDS011;6134;59.284;18.022;2022-12-31T06:54:26;3.63;;;1.60;;
12141;SDS011;6134;59.284;18.022;2022-12-31T06:56:55;3.08;;;1.38;;
12141;SDS011;6134;59.284;18.022;2022-12-31T06:59:24;4.05;;;1.45;;
12141;SDS011;6134;59.284;18.022;2022-12-31T07:02:01;4.40;;;1.70;;
12141;SDS011;6134;59.284;18.022;2022-12-31T07:07:20;6.10;;;2.03;;
12141;SDS011;6134;59.284;18.022;2022-12-31T07:09:54;4.22;;;1.55;;
12141;SDS011;6134;59.284;18.022;2022-12-31T07:12:33;3.08;;;1.42;;
12141;SDS011;6134;59.284;18.022;2022-12-31T07:15:04;6.57;;;1.50;;
12141;SDS011;6134;59.284;18.022;2022-12-31T07:17:36;5.00;;;1.27;;
12141;SDS011;6134;59.284;18.022;2022-12-31T07:20:09;6.15;;;1.52;;
12141;SDS011;6134;59.284;18.022;2022-12-31T07:22:39;6.20;;;1.40;;
12141;SDS011;6134;59.284;18.022;2022-12-31T07:25:11;4.68;;;1.23;;
12141;SDS011;6134;59.284;18.022;2022-12-31T07:27:43;4.20;;;1.48;;
12141;SDS011;6134;59.284;18.022;2022-12-31T07:30:16;1.88;;;1.05;;
12141;SDS011;6134;59.284;18.022;2022-12-31T07:33:00;5.05;;;1.60;;
12141;SDS011;6134;59.284;18.022;2022-12-31T07:35:36;3.88;;;1.25;;
12141;SDS011;6134;59.284;18.022;2022-12-31T07:38:11;8.50;;;1.42;;
12141;SDS011;6134;59.284;18.022;2022-12-31T07:40:47;3.00;;;1.35;;
12141;SDS011;6134;59.284;18.022;2022-12-31T07:43:21;2.50;;;1.15;;
12141;SDS011;6134;59.284;18.022;2022-12-31T07:45:51;4.13;;;1.33;;
12141;SDS011;6134;59.284;18.022;2022-12-31T07:48:25;4.57;;;1.40;;
12141;SDS011;6134;59.284;18.022;2022-12-31T07:50:54;3.72;;;1.50;;
12141;SDS011;6134;59.284;18.022;2022-12-31T07:53:24;5.05;;;1.30;;
12141;SDS011;6134;59.284;18.022;2022-12-31T07:55:54;8.45;;;1.77;;
12141;SDS011;6134;59.284;18.022;2022-12-31T07:58:25;3.10;;;1.20;;
12141;SDS011;6134;59.284;18.022;2022-12-31T08:00:55;4.25;;;1.30;;
12141;SDS011;6134;59.284;18.022;2022-12-31T08:03:42;2.08;;;1.52;;
12141;SDS011;6134;59.284;18.022;2022-12-31T08:06:14;1.80;;;1.30;;
12141;SDS011;6134;59.284;18.022;2022-12-31T08:08:48;3.67;;;1.30;;
12141;SDS011;6134;59.284;18.022;2022-12-31T08:11:21;2.75;;;1.50;;
12141;SDS011;6134;59.284;18.022;2022-12-31T08:13:52;5.57;;;1.20;;
12141;SDS011;6134;59.284;18.022;2022-12-31T08:16:22;3.80;;;1.50;;
12141;SDS011;6134;59.284;18.022;2022-12-31T08:18:53;6.82;;;1.42;;
12141;SDS011;6134;59.284;18.022;2022-12-31T08:21:25;3.30;;;1.10;;
12141;SDS011;6134;59.284;18.022;2022-12-31T08:24:03;4.65;;;1.20;;
12141;SDS011;6134;59.284;18.022;2022-12-31T08:26:36;6.07;;;1.95;;
12141;SDS011;6134;59.284;18.022;2022-12-31T08:29:09;6.72;;;1.63;;
12141;SDS011;6134;59.284;18.022;2022-12-31T08:31:41;5.13;;;1.25;;
12141;SDS011;6134;59.284;18.022;2022-12-31T08:34:15;3.90;;;1.33;;
12141;SDS011;6134;59.284;18.022;2022-12-31T08:36:47;6.03;;;1.35;;
12141;SDS011;6134;59.284;18.022;2022-12-31T08:39:23;5.90;;;1.63;;
12141;SDS011;6134;59.284;18.022;2022-12-31T08:41:55;3.15;;;1.23;;
12141;SDS011;6134;59.284;18.022;2022-12-31T08:44:27;5.38;;;1.80;;
12141;SDS011;6134;59.284;18.022;2022-12-31T08:46:58;2.28;;;1.42;;
12141;SDS011;6134;59.284;18.022;2022-12-31T08:49:33;3.13;;;1.20;;
12141;SDS011;6134;59.284;18.022;2022-12-31T08:52:02;9.07;;;2.47;;
12141;SDS011;6134;59.284;18.022;2022-12-31T08:54:31;6.07;;;1.45;;
12141;SDS011;6134;59.284;18.022;2022-12-31T08:57:02;6.50;;;1.30;;
12141;SDS011;6134;59.284;18.022;2022-12-31T08:59:35;7.18;;;1.67;;
12141;SDS011;6134;59.284;18.022;2022-12-31T09:05:00;4.43;;;1.45;;
12141;SDS011;6134;59.284;18.022;2022-12-31T09:07:33;4.43;;;1.65;;
12141;SDS011;6134;59.284;18.022;2022-12-31T09:10:06;4.35;;;1.40;;
12141;SDS011;6134;59.284;18.022;2022-12-31T09:12:37;7.53;;;1.60;;
12141;SDS011;6134;59.284;18.022;2022-12-31T09:15:10;5.32;;;1.35;;
12141;SDS011;6134;59.284;18.022;2022-12-31T09:17:42;6.85;;;1.90;;
12141;SDS011;6134;59.284;18.022;2022-12-31T09:20:16;5.32;;;1.25;;
12141;SDS011;6134;59.284;18.022;2022-12-31T09:22:45;7.38;;;1.98;;
12141;SDS011;6134;59.284;18.022;2022-12-31T09:25:14;7.07;;;1.75;;
12141;SDS011;6134;59.284;18.022;2022-12-31T09:27:45;7.85;;;1.67;;
12141;SDS011;6134;59.284;18.022;2022-12-31T09:30:19;9.95;;;1.77;;
12141;SDS011;6134;59.284;18.022;2022-12-31T09:32:49;10.05;;;1.92;;
12141;SDS011;6134;59.284;18.022;2022-12-31T09:35:34;8.10;;;2.35;;
12141;SDS011;6134;59.284;18.022;2022-12-31T09:38:03;5.75;;;1.52;;
12141;SDS011;6134;59.284;18.022;2022-12-31T09:40:52;5.18;;;1.60;;
12141;SDS011;6134;59.284;18.022;2022-12-31T09:43:39;7.93;;;1.58;;
12141;SDS011;6134;59.284;18.022;2022-12-31T09:46:18;6.90;;;1.80;;
12141;SDS011;6134;59.284;18.022;2022-12-31T09:51:36;3.70;;;1.38;;
12141;SDS011;6134;59.284;18.022;2022-12-31T09:57:05;7.57;;;2.28;;
12141;SDS011;6134;59.284;18.022;2022-12-31T09:59:36;5.93;;;1.88;;
12141;SDS011;6134;59.284;18.022;2022-12-31T10:02:12;7.60;;;1.98;;
12141;SDS011;6134;59.284;18.022;2022-12-31T10:04:50;9.70;;;1.90;;
12141;SDS011;6134;59.284;18.022;2022-12-31T10:07:34;3.90;;;1.52;;
12141;SDS011;6134;59.284;18.022;2022-12-31T10:10:08;4.95;;;1.90;;
12141;SDS011;6134;59.284;18.022;2022-12-31T10:18:26;9.88;;;2.47;;
12141;SDS011;6134;59.284;18.022;2022-12-31T10:21:00;6.35;;;2.00;;
12141;SDS011;6134;59.284;18.022;2022-12-31T10:23:42;8.18;;;2.10;;
12141;SDS011;6134;59.284;18.022;2022-12-31T10:26:24;10.65;;;2.33;;
12141;SDS011;6134;59.284;18.022;2022-12-31T10:28:54;6.63;;;1.80;;
12141;SDS011;6134;59.284;18.022;2022-12-31T10:31:33;8.40;;;2.15;;
12141;SDS011;6134;59.284;18.022;2022-12-31T10:34:11;10.75;;;2.13;;
12141;SDS011;6134;59.284;18.022;2022-12-31T10:39:32;5.93;;;2.03;;
12141;SDS011;6134;59.284;18.022;2022-12-31T10:42:09;10.60;;;2.17;;
12141;SDS011;6134;59.284;18.022;2022-12-31T10:44:55;9.15;;;2.25;;
12141;SDS011;6134;59.284;18.022;2022-12-31T10:50:29;8.10;;;2.20;;
12141;SDS011;6134;59.284;18.022;2022-12-31T10:55:54;10.98;;;2.13;;
12141;SDS011;6134;59.284;18.022;2022-12-31T10:58:34;6.22;;;1.95;;
12141;SDS011;6134;59.284;18.022;2022-12-31T11:01:12;5.93;;;1.60;;
12141;SDS011;6134;59.284;18.022;2022-12-31T11:04:00;5.30;;;1.83;;
12141;SDS011;6134;59.284;18.022;2022-12-31T11:12:11;6.18;;;2.25;;
12141;SDS011;6134;59.284;18.022;2022-12-31T11:14:54;5.93;;;2.00;;
12141;SDS011;6134;59.284;18.022;2022-12-31T11:17:31;10.85;;;1.88;;
12141;SDS011;6134;59.284;18.022;2022-12-31T11:20:06;5.18;;;1.73;;
12141;SDS011;6134;59.284;18.022;2022-12-31T11:22:51;9.82;;;2.15;;
12141;SDS011;6134;59.284;18.022;2022-12-31T11:25:28;8.43;;;2.22;;
12141;SDS011;6134;59.284;18.022;2022-12-31T11:28:03;7.47;;;2.28;;
12141;SDS011;6134;59.284;18.022;2022-12-31T11:30:37;5.63;;;1.98;;
12141;SDS011;6134;59.284;18.022;2022-12-31T11:33:15;10.77;;;2.00;;
12141;SDS011;6134;59.284;18.022;2022-12-31T11:35:54;7.88;;;2.50;;
12141;SDS011;6134;59.284;18.022;2022-12-31T11:38:25;7.38;;;2.38;;
12141;SDS011;6134;59.284;18.022;2022-12-31T11:40:59;10.90;;;2.47;;
12141;SDS011;6134;59.284;18.022;2022-12-31T11:43:31;3.97;;;1.73;;
12141;SDS011;6134;59.284;18.022;2022-12-31T11:46:17;13.45;;;2.40;;
12141;SDS011;6134;59.284;18.022;2022-12-31T11:51:36;8.10;;;2.17;;
12141;SDS011;6134;59.284;18.022;2022-12-31T11:57:10;8.68;;;2.28;;
12141;SDS011;6134;59.284;18.022;2022-12-31T11:59:44;6.15;;;1.92;;
12141;SDS011;6134;59.284;18.022;2022-12-31T12:02:19;8.43;;;2.42;;
12141;SDS011;6134;59.284;18.022;2022-12-31T12:04:50;7.03;;;2.13;;
12141;SDS011;6134;59.284;18.022;2022-12-31T12:07:20;9.02;;;2.42;;
12141;SDS011;6134;59.284;18.022;2022-12-31T12:09:50;10.38;;;2.58;;
12141;SDS011;6134;59.284;18.022;2022-12-31T12:12:20;8.32;;;2.03;;
12141;SDS011;6134;59.284;18.022;2022-12-31T12:14:51;7.57;;;1.90;;
12141;SDS011;6134;59.284;18.022;2022-12-31T12:17:23;8.40;;;2.83;;
12141;SDS011;6134;59.284;18.022;2022-12-31T12:19:59;9.13;;;2.50;;
12141;SDS011;6134;59.284;18.022;2022-12-31T12:22:29;7.45;;;2.33;;
12141;SDS011;6134;59.284;18.022;2022-12-31T12:25:01;4.43;;;2.17;;
12141;SDS011;6134;59.284;18.022;2022-12-31T12:27:31;9.52;;;2.85;;
12141;SDS011;6134;59.284;18.022;2022-12-31T12:30:08;12.80;;;2.60;;
12141;SDS011;6134;59.284;18.022;2022-12-31T12:32:37;13.32;;;2.55;;
12141;SDS011;6134;59.284;18.022;2022-12-31T12:35:13;10.38;;;2.25;;
12141;SDS011;6134;59.284;18.022;2022-12-31T12:37:41;5.53;;;2.03;;
12141;SDS011;6134;59.284;18.022;2022-12-31T12:40:17;9.23;;;2.05;;
12141;SDS011;6134;59.284;18.022;2022-12-31T12:42:47;8.23;;;2.35;;
12141;SDS011;6134;59.284;18.022;2022-12-31T12:45:18;6.15;;;2.15;;
12141;SDS011;6134;59.284;18.022;2022-12-31T12:47:47;8.52;;;2.20;;
12141;SDS011;6134;59.284;18.022;2022-12-31T12:50:18;10.10;;;2.45;;
12141;SDS011;6134;59.284;18.022;2022-12-31T12:52:57;7.47;;;1.95;;
12141;SDS011;6134;59.284;18.022;2022-12-31T12:55:30;7.07;;;2.08;;
12141;SDS011;6134;59.284;18.022;2022-12-31T12:58:03;8.23;;;2.08;;
12141;SDS011;6134;59.284;18.022;2022-12-31T13:00:36;9.18;;;2.53;;
12141;SDS011;6134;59.284;18.022;2022-12-31T13:03:11;11.55;;;2.40;;
12141;SDS011;6134;59.284;18.022;2022-12-31T13:05:46;10.63;;;2.83;;
12141;SDS011;6134;59.284;18.022;2022-12-31T13:08:21;6.07;;;2.33;;
12141;SDS011;6134;59.284;18.022;2022-12-31T13:10:56;10.55;;;2.60;;
12141;SDS011;6134;59.284;18.022;2022-12-31T13:13:29;11.55;;;2.30;;
12141;SDS011;6134;59.284;18.022;2022-12-31T13:16:02;9.57;;;2.63;;
12141;SDS011;6134;59.284;18.022;2022-12-31T13:18:39;11.43;;;2.10;;
12141;SDS011;6134;59.284;18.022;2022-12-31T13:21:15;10.20;;;2.13;;
12141;SDS011;6134;59.284;18.022;2022-12-31T13:23:48;9.18;;;2.30;;
12141;SDS011;6134;59.284;18.022;2022-12-31T13:26:20;11.60;;;3.30;;
12141;SDS011;6134;59.284;18.022;2022-12-31T13:28:51;9.73;;;2.58;;
12141;SDS011;6134;59.284;18.022;2022-12-31T13:31:22;7.65;;;2.10;;
12141;SDS011;6134;59.284;18.022;2022-12-31T13:33:54;12.15;;;2.60;;
12141;SDS011;6134;59.284;18.022;2022-12-31T13:36:23;6.63;;;2.17;;
12141;SDS011;6134;59.284;18.022;2022-12-31T13:38:54;8.73;;;1.95;;
12141;SDS011;6134;59.284;18.022;2022-12-31T13:41:25;7.75;;;2.03;;
12141;SDS011;6134;59.284;18.022;2022-12-31T13:43:55;8.82;;;2.33;;
12141;SDS011;6134;59.284;18.022;2022-12-31T13:46:34;9.07;;;2.08;;
12141;SDS011;6134;59.284;18.022;2022-12-31T13:49:08;7.55;;;2.47;;
12141;SDS011;6134;59.284;18.022;2022-12-31T13:51:40;5.78;;;2.20;;
12141;SDS011;6134;59.284;18.022;2022-12-31T13:54:23;10.70;;;2.35;;
12141;SDS011;6134;59.284;18.022;2022-12-31T13:56:54;6.75;;;1.98;;
12141;SDS011;6134;59.284;18.022;2022-12-31T13:59:26;7.90;;;2.35;;
12141;SDS011;6134;59.284;18.022;2022-12-31T14:01:59;6.53;;;2.20;;
12141;SDS011;6134;59.284;18.022;2022-12-31T14:04:31;6.63;;;2.13;;
12141;SDS011;6134;59.284;18.022;2022-12-31T14:07:01;8.68;;;2.22;;
12141;SDS011;6134;59.284;18.022;2022-12-31T14:09:32;7.28;;;1.90;;
12141;SDS011;6134;59.284;18.022;2022-12-31T14:12:06;6.13;;;2.33;;
12141;SDS011;6134;59.284;18.022;2022-12-31T14:14:39;10.88;;;2.85;;
12141;SDS011;6134;59.284;18.022;2022-12-31T14:17:14;6.57;;;2.35;;
12141;SDS011;6134;59.284;18.022;2022-12-31T14:19:51;10.70;;;2.55;;
12141;SDS011;6134;59.284;18.022;2022-12-31T14:22:23;9.02;;;2.30;;
12141;SDS011;6134;59.284;18.022;2022-12-31T14:24:54;5.90;;;2.17;;
12141;SDS011;6134;59.284;18.022;2022-12-31T14:27:26;10.02;;;2.60;;
12141;SDS011;6134;59.284;18.022;2022-12-31T14:29:56;14.60;;;2.38;;
12141;SDS011;6134;59.284;18.022;2022-12-31T14:35:27;8.00;;;2.40;;
12141;SDS011;6134;59.284;18.022;2022-12-31T14:37:59;8.63;;;2.30;;
12141;SDS011;6134;59.284;18.022;2022-12-31T14:40:33;7.82;;;1.98;;
12141;SDS011;6134;59.284;18.022;2022-12-31T14:43:08;7.43;;;2.40;;
12141;SDS011;6134;59.284;18.022;2022-12-31T14:45:44;11.02;;;2.63;;
12141;SDS011;6134;59.284;18.022;2022-12-31T14:48:16;8.23;;;2.38;;
12141;SDS011;6134;59.284;18.022;2022-12-31T14:50:53;8.48;;;2.30;;
12141;SDS011;6134;59.284;18.022;2022-12-31T14:53:23;10.52;;;2.60;;
12141;SDS011;6134;59.284;18.022;2022-12-31T14:55:55;9.57;;;2.45;;
12141;SDS011;6134;59.284;18.022;2022-12-31T14:58:28;6.80;;;1.92;;
12141;SDS011;6134;59.284;18.022;2022-12-31T15:00:58;10.55;;;2.33;;
12141;SDS011;6134;59.284;18.022;2022-12-31T15:03:32;9.95;;;2.75;;
12141;SDS011;6134;59.284;18.022;2022-12-31T15:08:54;4.95;;;2.10;;
12141;SDS011;6134;59.284;18.022;2022-12-31T15:11:36;9.57;;;2.88;;
12141;SDS011;6134;59.284;18.022;2022-12-31T15:14:20;5.65;;;2.15;;
12141;SDS011;6134;59.284;18.022;2022-12-31T15:17:04;10.70;;;2.50;;
12141;SDS011;6134;59.284;18.022;2022-12-31T15:19:49;9.80;;;2.28;;
12141;SDS011;6134;59.284;18.022;2022-12-31T15:22:26;11.85;;;2.45;;
12141;SDS011;6134;59.284;18.022;2022-12-31T15:24:59;6.90;;;2.47;;
12141;SDS011;6134;59.284;18.022;2022-12-31T15:27:30;8.18;;;2.60;;
12141;SDS011;6134;59.284;18.022;2022-12-31T15:30:02;9.07;;;2.20;;
12141;SDS011;6134;59.284;18.022;2022-12-31T15:32:33;11.82;;;2.55;;
12141;SDS011;6134;59.284;18.022;2022-12-31T15:35:03;7.72;;;2.60;;
12141;SDS011;6134;59.284;18.022;2022-12-31T15:37:56;7.13;;;2.00;;
12141;SDS011;6134;59.284;18.022;2022-12-31T15:40:27;9.40;;;2.28;;
12141;SDS011;6134;59.284;18.022;2022-12-31T15:42:56;8.50;;;2.58;;
12141;SDS011;6134;59.284;18.022;2022-12-31T15:45:30;15.07;;;7.32;;
12141;SDS011;6134;59.284;18.022;2022-12-31T15:48:00;9.43;;;4.82;;
12141;SDS011;6134;59.284;18.022;2022-12-31T15:50:30;11.77;;;3.72;;
12141;SDS011;6134;59.284;18.022;2022-12-31T15:52:59;11.82;;;3.53;;
12141;SDS011;6134;59.284;18.022;2022-12-31T15:55:31;7.03;;;2.90;;
12141;SDS011;6134;59.284;18.022;2022-12-31T15:58:02;8.32;;;4.18;;
12141;SDS011;6134;59.284;18.022;2022-12-31T16:00:35;7.70;;;2.72;;